Weather

Other Local Aerodome WX Info

Adelaide

TAF YPAD 160537Z 1606/1712 22008KT 9999 -SHRA SCT012 BKN025 FM161200 29008KT 9999 -SHRA SCT010 BKN020 FM161800 28010KT 9999 -SHRA SCT008 BKN010 FM162200 27014KT 9999 -SHRA BKN025 INTER 1606/1610 5000 SHRA BKN010 TEMPO 1610/1623 3000 DZ BKN008 INTER 1623/1712 5000 SHRA BKN015 RMK T 13 12 11 11 Q 1027 1027 1027 1025

Parafield

TAF YPPF 160533Z 1606/1618 22008KT 9999 -SHRA SCT012 BKN025 FM161200 29008KT 9999 -SHRA SCT010 BKN020 INTER 1606/1610 5000 SHRA BKN010 TEMPO 1610/1618 3000 DZ BKN008 RMK T 13 11 11 11 Q 1027 1027 1027 1025

Murray Bridge

TAF AMD YMBD 160054Z 1600/1614 21008KT 9999 -SHRA SCT015 BKN025 INTER 1604/1610 5000 SHRA BKN010 RMK T 13 15 15 11 Q 1029 1028 1026 1027

Kingscote

TAF YKSC 160524Z 1606/1618 24005KT 9999 -SHRA SCT020 BKN030 INTER 1606/1618 5000 SHRA BKN012 RMK T 15 12 10 09 Q 1026 1026 1026 1024